Data for 11/30/2013

Time Sea-Level Adjusted Pressure Absolute Pressure Temperature Relative Humidity Dew Point   
(mb) (inHg) (mb) (inHg) (C) (F) (%) (C) (F)
00:05 1022 30.18 851 25.13 2.9 37.2 56 -5 23
00:10 1022 30.18 851 25.13 3 37.4 56 -5.1 22.9
00:15 1022 30.18 851 25.13 2.9 37.1 57 -4.8 23.3
00:20 1021 30.15 851 25.13 2.4 36.4 57 -5.3 22.5
00:25 1021 30.15 851 25.13 3 37.4 54 -5.4 22.3
00:30 1021 30.15 851 25.13 3 37.4 56 -5 23.1
00:35 1021 30.15 851 25.13 2.9 37.3 56 -5 23
00:40 1021 30.15 851 25.13 3.1 37.6 52 -5.7 21.8
00:45 1021 30.15 851 25.13 3.9 39 51 -5.4 22.2
00:50 1021 30.15 851 25.13 4.2 39.6 50 -5.3 22.4
00:55 1021 30.15 851 25.13 4.4 40 50 -5.1 22.8
01:00 1021 30.15 851 25.13 4.2 39.5 50 -5.3 22.4
01:05 1021 30.15 851 25.13 4.5 40.2 49 -5.3 22.5
01:10 1021 30.15 851 25.13 4.8 40.7 50 -4.7 23.6
01:15 1021 30.15 851 25.13 4.7 40.4 49 -5.1 22.8
01:20 1021 30.15 850 25.1 4.9 40.8 49 -4.9 23.1
01:25 1021 30.15 850 25.1 4.4 39.9 52 -4.7 23.6
01:30 1021 30.15 850 25.1 3.9 39 54 -4.5 23.9
01:35 1021 30.15 850 25.1 3.3 38 56 -4.5 23.8
01:40 1021 30.15 850 25.1 3.2 37.7 58 -4.4 24.1
01:45 1021 30.15 850 25.1 3.1 37.5 57 -4.5 23.9
01:50 1021 30.15 850 25.1 2.9 37.3 59 -4.4 24.1
01:55 1021 30.15 850 25.1 2.9 37.3 59 -4.4 24.1
02:00 1021 30.15 850 25.1 3 37.3 59 -4.3 24.2
02:05 1021 30.15 850 25.1 2.9 37.2 58 -4.6 23.8
02:10 1021 30.15 850 25.1 2.9 37.2 59 -4.4 24.1
02:15 1021 30.15 850 25.1 3.2 37.7 55 -5.1 22.8
02:20 1021 30.15 850 25.1 3.5 38.3 55 -4.6 23.7
02:25 1021 30.15 850 25.1 3.3 38 57 -4.4 24
02:30 1021 30.15 850 25.1 3.1 37.5 60 -4 24.8
02:35 1021 30.15 850 25.1 2.8 37.1 62 -3.7 25.3
02:40 1021 30.15 851 25.13 2.6 36.8 62 -3.8 25.1
02:45 1021 30.15 851 25.13 2.5 36.5 62 -4.1 24.7
02:50 1021 30.15 851 25.13 2.5 36.6 61 -4.3 24.3
02:55 1021 30.15 851 25.13 2.8 37.1 60 -4.1 24.5
03:00 1021 30.15 851 25.13 2.8 37 59 -4.4 24
03:05 1021 30.15 851 25.13 3.1 37.5 58 -4.4 24.1
03:10 1021 30.15 851 25.13 3.3 38 57 -4.5 24
03:15 1021 30.15 851 25.13 3.5 38.2 57 -4.3 24.3
03:20 1021 30.15 851 25.13 3.1 37.6 62 -3.5 25.7
03:25 1022 30.18 851 25.13 2.7 36.9 61 -4.1 24.6
03:30 1022 30.18 851 25.13 2.8 37 60 -4.1 24.6
03:35 1022 30.18 851 25.13 2.9 37.2 59 -4.3 24.2
03:40 1022 30.18 851 25.13 3 37.4 58 -4.5 24
03:45 1022 30.18 851 25.13 3.2 37.7 57 -4.6 23.7
03:50 1022 30.18 851 25.13 3.3 38 56 -4.5 23.9
03:55 1022 30.18 851 25.13 3.5 38.4 55 -4.6 23.6
04:00 1022 30.18 851 25.13 3.5 38.4 54 -4.9 23.2
04:05 1022 30.18 851 25.13 3.6 38.6 54 -4.9 23.2
04:10 1022 30.18 851 25.13 3.8 38.9 55 -4.3 24.3
04:15 1022 30.18 851 25.13 3.5 38.3 60 -3.6 25.6
04:20 1022 30.18 851 25.13 2.8 37.1 63 -3.6 25.5
04:25 1022 30.18 851 25.13 2.5 36.5 63 -3.9 25
04:30 1022 30.18 851 25.13 2.6 36.6 62 -4.1 24.7
04:35 1022 30.18 851 25.13 2.6 36.7 64 -3.6 25.5
04:40 1022 30.18 851 25.13 2.5 36.5 62 -4 24.9
04:45 1021 30.15 851 25.13 2.5 36.5 64 -3.6 25.5
04:50 1021 30.15 851 25.13 2.3 36.2 64 -3.7 25.3
04:55 1021 30.15 851 25.13 2.2 35.9 66 -3.5 25.6
05:00 1021 30.15 851 25.13 2.1 35.7 65 -3.8 25.2
05:05 1021 30.15 851 25.13 2.1 35.9 64 -4 24.8
05:10 1021 30.15 850 25.1 2.4 36.3 61 -4.3 24.2
05:15 1021 30.15 851 25.13 2.7 36.8 58 -4.7 23.6
05:20 1021 30.15 851 25.13 2.9 37.3 58 -4.6 23.7
05:25 1021 30.15 850 25.1 3.1 37.6 57 -4.5 23.9
05:30 1021 30.15 850 25.1 3.1 37.6 57 -4.6 23.7
05:35 1021 30.15 851 25.13 3.2 37.8 55 -4.9 23.1
05:40 1021 30.15 851 25.13 3.4 38.2 55 -4.7 23.6
05:45 1021 30.15 851 25.13 3.5 38.4 55 -4.6 23.8
05:50 1021 30.15 851 25.13 3.6 38.4 55 -4.6 23.7
05:55 1021 30.15 851 25.13 3.5 38.3 55 -4.8 23.4
06:00 1021 30.15 850 25.1 3.5 38.3 55 -4.6 23.7
06:05 1021 30.15 850 25.1 3.4 38 56 -4.5 23.8
06:10 1021 30.15 851 25.13 3.3 37.9 56 -4.6 23.7
06:15 1021 30.15 851 25.13 3.4 38.1 55 -4.7 23.5
06:20 1021 30.15 851 25.13 3.5 38.4 54 -4.8 23.4
06:25 1021 30.15 851 25.13 3.6 38.5 55 -4.7 23.6
06:30 1021 30.15 851 25.13 3.4 38.1 58 -4.1 24.7
06:35 1021 30.15 851 25.13 3 37.4 60 -4.1 24.6
06:40 1021 30.15 851 25.13 2.8 37.1 60 -4.1 24.6
06:45 1021 30.15 851 25.13 2.7 36.8 61 -4.2 24.5
06:50 1021 30.15 851 25.13 2.7 36.8 60 -4.3 24.3
06:55 1021 30.15 851 25.13 2.8 37.1 59 -4.4 24.1
07:00 1022 30.18 851 25.13 3 37.4 59 -4.3 24.3
07:05 1022 30.18 851 25.13 2.9 37.3 61 -3.8 25.1
07:10 1022 30.18 851 25.13 2.7 36.8 62 -3.8 25.1
07:15 1022 30.18 851 25.13 2.5 36.5 62 -4 24.8
07:20 1022 30.18 851 25.13 2.4 36.4 62 -4.1 24.5
07:25 1022 30.18 851 25.13 2.5 36.6 61 -4.2 24.5
07:30 1022 30.18 851 25.13 2.6 36.7 61 -4.2 24.4
07:35 1022 30.18 851 25.13 2.6 36.8 60 -4.3 24.2
07:40 1022 30.18 851 25.13 2.7 36.9 60 -4.4 24.2
07:45 1022 30.18 851 25.13 3 37.5 56 -4.8 23.3
07:50 1022 30.18 851 25.13 3.1 37.5 61 -3.7 25.3
07:55 1022 30.18 851 25.13 2.7 36.9 60 -4.2 24.4
08:00 1022 30.18 851 25.13 2.6 36.8 62 -3.9 25
08:05 1022 30.18 851 25.13 2.4 36.3 60 -4.7 23.6
08:10 1022 30.18 851 25.13 2.6 36.7 59 -4.7 23.6
08:15 1022 30.18 851 25.13 2.6 36.7 61 -4.1 24.6
08:20 1022 30.18 851 25.13 2.6 36.6 62 -4 24.8
08:25 1022 30.18 851 25.13 2.5 36.4 62 -4.1 24.6
08:30 1022 30.18 851 25.13 2.5 36.5 62 -4 24.7
08:35 1022 30.18 851 25.13 2.4 36.3 61 -4.3 24.3
08:40 1022 30.18 851 25.13 2.5 36.5 61 -4.3 24.3
08:45 1022 30.18 852 25.16 2.7 36.8 58 -4.8 23.3
08:50 1022 30.18 852 25.16 3 37.5 55 -5 23
08:55 1022 30.18 852 25.16 3.4 38.1 54 -5.1 22.8
09:00 1022 30.18 852 25.16 3.5 38.3 55 -4.8 23.3
09:05 1022 30.18 852 25.16 3.5 38.4 56 -4.5 23.9
09:10 1022 30.18 852 25.16 3.4 38.2 58 -4 24.8
09:15 1022 30.18 852 25.16 3.1 37.6 60 -3.9 25.1
09:20 1023 30.21 852 25.16 2.7 36.9 62 -3.9 25.1
09:25 1023 30.21 852 25.16 2.5 36.5 61 -4.3 24.3
09:30 1023 30.21 852 25.16 2.6 36.6 60 -4.3 24.2
09:35 1023 30.21 852 25.16 2.8 37.1 60 -4.1 24.6
09:40 1023 30.21 852 25.16 3 37.5 59 -4.2 24.4
09:45 1023 30.21 852 25.16 3.1 37.6 56 -4.7 23.5
09:50 1023 30.21 852 25.16 3.4 38.1 55 -4.8 23.4
09:55 1023 30.21 852 25.16 3.6 38.4 54 -4.8 23.4
10:00 1023 30.21 852 25.16 3.7 38.6 55 -4.5 23.8
10:05 1023 30.21 852 25.16 3.7 38.6 56 -4.2 24.4
10:10 1023 30.21 852 25.16 3.5 38.4 57 -4.1 24.6
10:15 1023 30.21 852 25.16 3.3 38 57 -4.4 24.1
10:20 1023 30.21 852 25.16 3.2 37.8 56 -4.7 23.5
10:25 1023 30.21 852 25.16 3.5 38.2 56 -4.4 24
10:30 1022 30.18 852 25.16 3.7 38.6 55 -4.5 24
10:35 1022 30.18 852 25.16 3.9 39 54 -4.7 23.6
10:40 1022 30.18 852 25.16 3.9 39.1 56 -4.1 24.7
10:45 1022 30.18 852 25.16 3.8 38.8 56 -4.1 24.6
10:50 1022 30.18 852 25.16 3.7 38.6 58 -3.9 24.9
10:55 1023 30.21 852 25.16 3.7 38.6 58 -3.8 25.2
11:00 1023 30.21 852 25.16 3.7 38.6 58 -3.9 25
11:05 1022 30.18 852 25.16 3.6 38.5 60 -3.5 25.7
11:10 1022 30.18 852 25.16 3.5 38.4 59 -3.7 25.4
11:15 1022 30.18 852 25.16 3.5 38.3 60 -3.7 25.4
11:20 1023 30.21 852 25.16 3.6 38.5 57 -4.2 24.5
11:25 1023 30.21 852 25.16 3.7 38.6 57 -4.1 24.7
11:30 1023 30.21 852 25.16 3.7 38.7 57 -3.9 24.9
11:35 1023 30.21 852 25.16 3.8 38.9 56 -4.2 24.5
11:40 1023 30.21 852 25.16 4 39.1 57 -3.8 25.1
11:45 1022 30.18 852 25.16 4.1 39.4 55 -4.2 24.4
11:50 1022 30.18 852 25.16 4.4 39.9 52 -4.6 23.6
11:55 1022 30.18 852 25.16 4.7 40.5 53 -4.1 24.5
12:00 1022 30.18 852 25.16 4.9 40.8 51 -4.3 24.3
12:05 1022 30.18 852 25.16 5 41 49 -4.8 23.4
12:10 1022 30.18 852 25.16 5 41 49 -4.7 23.5
12:15 1022 30.18 852 25.16 5.2 41.4 50 -4.4 24.1
12:20 1022 30.18 851 25.13 5.5 41.9 48 -4.8 23.4
12:25 1022 30.18 851 25.13 5.5 41.9 47 -5 23.1
12:30 1022 30.18 851 25.13 5.6 42.1 49 -4.4 24.1
12:35 1022 30.18 851 25.13 5.6 42.1 49 -4.4 24.1
12:40 1022 30.18 851 25.13 5.7 42.2 47 -4.7 23.6
12:45 1022 30.18 851 25.13 5.5 41.9 48 -4.6 23.8
12:50 1022 30.18 851 25.13 5.6 42.1 48 -4.6 23.8
12:55 1022 30.18 851 25.13 5.5 42 48 -4.6 23.7
13:00 1022 30.18 851 25.13 5.5 41.9 48 -4.7 23.5
13:05 1022 30.18 851 25.13 5.6 42 48 -4.5 24
13:10 1022 30.18 851 25.13 5.6 42 48 -4.5 23.9
13:15 1022 30.18 851 25.13 5.6 42.1 50 -4.1 24.6
13:20 1022 30.18 851 25.13 5.6 42 50 -4.1 24.6
13:25 1022 30.18 851 25.13 5.5 41.9 51 -3.9 24.9
13:30 1022 30.18 851 25.13 5.6 42.1 49 -4.2 24.4
13:35 1022 30.18 851 25.13 6 42.8 47 -4.4 24.1
13:40 1022 30.18 851 25.13 6.2 43.1 47 -4.2 24.4
13:45 1022 30.18 851 25.13 6.7 44 45 -4.5 23.8
13:50 1022 30.18 851 25.13 7.5 45.4 43 -4.4 24.1
13:55 1022 30.18 851 25.13 7.8 46 40 -4.8 23.3
14:00 1021 30.15 851 25.13 8.1 46.6 40 -4.6 23.6
14:05 1021 30.15 851 25.13 8 46.4 43 -3.9 25
14:10 1021 30.15 851 25.13 7.7 45.9 43 -3.9 24.9
14:15 1021 30.15 851 25.13 8.2 46.7 42 -4 24.7
14:20 1021 30.15 850 25.1 7.8 46 43 -4 24.7
14:25 1021 30.15 850 25.1 7.7 45.8 44 -3.9 24.9
14:30 1021 30.15 850 25.1 7.6 45.6 43 -4.3 24.3
14:35 1021 30.15 850 25.1 7.5 45.6 42 -4.5 23.9
14:40 1021 30.15 850 25.1 7.7 45.8 43 -4.2 24.5
14:45 1021 30.15 850 25.1 7.8 46 43 -3.9 25
14:50 1021 30.15 850 25.1 7.7 45.8 44 -3.9 25
14:55 1021 30.15 850 25.1 7.5 45.5 44 -4 24.9
15:00 1021 30.15 850 25.1 7.7 45.8 42 -4.3 24.3
15:05 1021 30.15 850 25.1 7.6 45.7 44 -3.8 25.1
15:10 1021 30.15 850 25.1 7.1 44.7 45 -4 24.8
15:15 1021 30.15 850 25.1 7.2 45 45 -4 24.9
15:20 1021 30.15 850 25.1 7 44.7 46 -3.9 25
15:25 1021 30.15 850 25.1 7.4 45.2 44 -4 24.8
15:30 1021 30.15 850 25.1 7.6 45.7 43 -4.2 24.5
15:35 1021 30.15 850 25.1 7.7 45.8 43 -4.1 24.7
15:40 1021 30.15 850 25.1 7.6 45.8 44 -4 24.9
15:45 1021 30.15 850 25.1 7.5 45.4 44 -3.9 25
15:50 1021 30.15 850 25.1 7.3 45.1 45 -3.9 25
15:55 1021 30.15 850 25.1 7 44.6 46 -3.9 25
16:00 1021 30.15 850 25.1 6.7 44 46 -4.1 24.7
16:05 1021 30.15 850 25.1 6.6 43.9 47 -4 24.8
16:10 1021 30.15 850 25.1 6.7 44.1 46 -4.2 24.5
16:15 1021 30.15 850 25.1 6.8 44.3 46 -4 24.7
16:20 1021 30.15 850 25.1 6.7 44 47 -3.9 24.9
16:25 1021 30.15 850 25.1 6.7 44.1 47 -3.8 25.2
16:30 1021 30.15 850 25.1 6.6 43.9 48 -3.5 25.7
16:35 1021 30.15 850 25.1 6.5 43.6 51 -3 26.5
16:40 1021 30.15 850 25.1 6.3 43.4 52 -2.7 27.1
16:45 1021 30.15 850 25.1 6.2 43.2 53 -2.6 27.3
16:50 1021 30.15 850 25.1 6.2 43.1 54 -2.5 27.4
16:55 1021 30.15 850 25.1 6.1 43 53 -2.7 27.2
17:00 1021 30.15 850 25.1 6 42.8 54 -2.7 27.1
17:05 1021 30.15 850 25.1 5.9 42.5 53 -3 26.6
17:10 1021 30.15 850 25.1 5.8 42.4 54 -2.7 27.1
17:15 1021 30.15 850 25.1 5.5 41.9 58 -2 28.4
17:20 1021 30.15 850 25.1 5.2 41.3 62 -1.6 29.2
17:25 1021 30.15 850 25.1 5 40.9 63 -1.4 29.5
17:30 1021 30.15 850 25.1 4.8 40.7 65 -1.2 29.8
17:35 1021 30.15 850 25.1 4.7 40.5 66 -1.1 30.1
17:40 1021 30.15 850 25.1 4.6 40.3 67 -1 30.2
17:45 1021 30.15 850 25.1 4.6 40.3 67 -0.9 30.4
17:50 1021 30.15 850 25.1 4.7 40.4 67 -1 30.2
17:55 1021 30.15 850 25.1 4.6 40.3 67 -0.9 30.3
18:00 1021 30.15 850 25.1 4.5 40.1 68 -0.9 30.3
18:05 1021 30.15 851 25.13 4.5 40.1 68 -1 30.3
18:10 1021 30.15 851 25.13 4.2 39.6 70 -0.8 30.6
18:15 1022 30.18 851 25.13 4 39.2 70 -0.9 30.4
18:20 1022 30.18 851 25.13 4.1 39.4 70 -1 30.3
18:25 1022 30.18 851 25.13 4.3 39.8 69 -0.9 30.5
18:30 1022 30.18 851 25.13 4.6 40.3 68 -0.9 30.5
18:35 1022 30.18 851 25.13 4.5 40.1 68 -0.9 30.4
18:40 1022 30.18 851 25.13 4.7 40.4 71 -0.2 31.6
18:45 1022 30.18 851 25.13 4.7 40.5 68 -0.7 30.7
18:50 1022 30.18 851 25.13 4.7 40.4 70 -0.4 31.3
18:55 1022 30.18 851 25.13 4.6 40.3 70 -0.5 31.2
19:00 1022 30.18 851 25.13 4.7 40.4 72 0.1 32.1
19:05 1022 30.18 851 25.13 4.6 40.4 70 -0.3 31.4
19:10 1022 30.18 851 25.13 4.6 40.2 74 0.4 32.7
19:15 1022 30.18 851 25.13 4.2 39.5 77 0.4 32.8
19:20 1022 30.18 851 25.13 4 39.2 78 0.5 32.9
19:25 1022 30.18 851 25.13 4 39.1 77 0.3 32.5
19:30 1022 30.18 851 25.13 3.8 38.8 80 0.7 33.2
19:35 1022 30.18 851 25.13 3.8 38.9 77 0.1 32.2
19:40 1022 30.18 851 25.13 4.2 39.6 75 0.1 32.2
19:45 1022 30.18 851 25.13 4 39.1 79 0.7 33.2
19:50 1022 30.18 851 25.13 3.5 38.3 81 0.5 32.9
19:55 1022 30.18 851 25.13 3.3 38 81 0.4 32.7
20:00 1022 30.18 851 25.13 3.3 38 81 0.4 32.8
20:05 1022 30.18 851 25.13 3.3 37.9 81 0.4 32.7
20:10 1022 30.18 851 25.13 3.3 37.9 81 0.3 32.5
20:15 1021 30.15 851 25.13 3.3 37.9 82 0.5 32.9
20:20 1021 30.15 851 25.13 3.2 37.7 83 0.5 32.9
20:25 1021 30.15 851 25.13 3.1 37.7 83 0.6 33
20:30 1021 30.15 851 25.13 3.1 37.6 83 0.6 33
20:35 1021 30.15 851 25.13 3 37.5 83 0.4 32.8
20:40 1021 30.15 851 25.13 3 37.3 83 0.4 32.8
20:45 1021 30.15 850 25.1 2.9 37.2 84 0.4 32.7
20:50 1021 30.15 850 25.1 2.9 37.2 84 0.5 32.8
20:55 1021 30.15 850 25.1 2.8 37.1 84 0.4 32.7
21:00 1021 30.15 850 25.1 2.9 37.2 84 0.4 32.6
21:05 1021 30.15 850 25.1 2.9 37.2 83 0.3 32.6
21:10 1021 30.15 850 25.1 2.9 37.3 82 0.2 32.4
21:15 1021 30.15 850 25.1 2.9 37.2 83 0.2 32.4
21:20 1021 30.15 850 25.1 2.8 37 83 0.1 32.3
21:25 1021 30.15 850 25.1 2.7 36.9 83 0.1 32.2
21:30 1021 30.15 850 25.1 2.7 36.8 84 0.2 32.3
21:35 1021 30.15 850 25.1 2.6 36.7 86 0.5 32.8
21:40 1021 30.15 850 25.1 2.2 36 88 0.4 32.7
21:45 1021 30.15 850 25.1 2.1 35.8 87 0.2 32.4
21:50 1021 30.15 850 25.1 2.3 36.1 86 0.2 32.3
21:55 1021 30.15 850 25.1 2.5 36.5 85 0.3 32.5
22:00 1021 30.15 850 25.1 2.7 36.8 84 0.2 32.3
22:05 1021 30.15 850 25.1 2.8 37 83 0.3 32.5
22:10 1021 30.15 850 25.1 3 37.4 80 -0.1 31.9
22:15 1021 30.15 850 25.1 3.3 38 79 0 32
22:20 1021 30.15 850 25.1 3.5 38.3 77 -0.1 31.8
22:25 1021 30.15 850 25.1 3.6 38.4 76 -0.3 31.4
22:30 1021 30.15 850 25.1 3.7 38.6 75 -0.3 31.4
22:35 1021 30.15 850 25.1 3.8 38.8 74 -0.4 31.2
22:40 1021 30.15 850 25.1 3.8 38.8 72 -0.8 30.6
22:45 1021 30.15 850 25.1 3.9 39 75 -0.2 31.6
22:50 1021 30.15 850 25.1 3.8 38.8 73 -0.7 30.8
22:55 1021 30.15 850 25.1 3.8 38.9 71 -0.8 30.5
23:00 1021 30.15 850 25.1 4 39.2 73 -0.4 31.3
23:05 1021 30.15 850 25.1 4 39.2 71 -0.7 30.7
23:10 1021 30.15 850 25.1 4.1 39.4 70 -0.9 30.3
23:15 1021 30.15 850 25.1 4.3 39.7 70 -0.7 30.7
23:20 1021 30.15 850 25.1 4.2 39.6 71 -0.7 30.8
23:25 1021 30.15 850 25.1 4.1 39.4 70 -0.8 30.5
23:30 1021 30.15 850 25.1 4.1 39.5 71 -0.7 30.8
23:35 1021 30.15 850 25.1 4.1 39.4 70 -0.8 30.6
23:40 1021 30.15 850 25.1 4.1 39.4 70 -0.8 30.5
23:45 1021 30.15 850 25.1 4.1 39.4 71 -0.7 30.8
23:50 1021 30.15 850 25.1 4.1 39.4 71 -0.7 30.7
23:55 1021 30.15 850 25.1 4.1 39.3 71 -0.7 30.7
24:00 1021 30.15 850 25.1 4 39.3 70 -0.9 30.4